Time;durP1;ratioP1;P1;durP2;ratioP2;P2;SDS_P1;SDS_P2;PMS_P1;PMS_P2;Temp;Humidity;BMP_temperature;BMP_pressure;BME280_temperature;BME280_humidity;BME280_pressure;Samples;Min_cycle;Max_cycle;Signal;HPM_P1;HPM_P2
2022/05/02 00:01:36;;;;;;;20.13;10.52;;;;;;;13.25;80.42;101682.59;7389573;19;20252;-64
2022/05/02 00:04:04;;;;;;;20.67;10.82;;;;;;;13.27;80.71;101677.13;7385480;19;20034;-65
2022/05/02 00:06:31;;;;;;;19.75;10.35;;;;;;;13.32;79.78;101684.59;7390539;19;20236;-65
2022/05/02 00:08:59;;;;;;;22.17;11.32;;;;;;;13.33;79.15;101683.63;7381177;19;20126;-62
2022/05/02 00:11:26;;;;;;;21.10;10.52;;;;;;;13.32;79.48;101674.88;7386300;19;20168;-63
2022/05/02 00:13:53;;;;;;;20.05;10.98;;;;;;;13.27;79.67;101675.31;7387276;19;20022;-64
2022/05/02 00:16:20;;;;;;;20.75;11.27;;;;;;;13.30;80.64;101678.66;7384651;19;20014;-64
2022/05/02 00:18:48;;;;;;;22.00;10.90;;;;;;;13.33;79.63;101678.34;7390132;19;20018;-63
2022/05/02 00:21:15;;;;;;;18.40;10.27;;;;;;;13.35;80.49;101671.13;7386122;19;20493;-65
2022/05/02 00:23:42;;;;;;;22.10;11.23;;;;;;;13.31;79.70;101677.69;7386762;19;20028;-64
2022/05/02 00:26:09;;;;;;;20.17;11.45;;;;;;;13.35;80.45;101679.03;7386072;19;20013;-64
2022/05/02 00:28:36;;;;;;;22.17;11.30;;;;;;;13.32;79.96;101666.94;7383141;19;20024;-63
2022/05/02 00:31:04;;;;;;;21.25;10.57;;;;;;;13.33;79.68;101671.25;7386659;19;20007;-65
2022/05/02 00:33:31;;;;;;;21.40;10.57;;;;;;;13.36;79.27;101667.50;7389767;19;20091;-65
2022/05/02 00:35:58;;;;;;;21.58;11.60;;;;;;;13.36;78.93;101678.06;7388535;19;20396;-63
2022/05/02 00:38:25;;;;;;;20.35;11.00;;;;;;;13.39;78.97;101670.66;7386806;19;20047;-64
2022/05/02 00:40:53;;;;;;;20.45;11.98;;;;;;;13.39;78.41;101664.53;7383526;19;20017;-64
2022/05/02 00:43:20;;;;;;;19.33;10.88;;;;;;;13.31;78.73;101675.03;7224564;19;3163053;-65
2022/05/02 00:45:47;;;;;;;23.35;11.10;;;;;;;13.22;79.02;101663.53;7387805;19;20077;-63
2022/05/02 00:48:15;;;;;;;25.58;13.43;;;;;;;13.24;80.20;101656.28;7384585;19;20025;-65
2022/05/02 00:50:44;;;;;;;22.35;11.73;;;;;;;13.26;79.51;101656.97;7385652;19;20078;-63
2022/05/02 00:53:15;;;;;;;19.13;10.85;;;;;;;13.28;79.30;101662.94;7385302;19;20018;-63
2022/05/02 00:55:44;;;;;;;18.98;10.18;;;;;;;13.30;78.85;101661.00;7385031;19;20655;-64
2022/05/02 00:58:14;;;;;;;18.45;10.38;;;;;;;13.28;79.05;101653.19;7384648;19;20015;-63
2022/05/02 01:00:43;;;;;;;24.55;13.48;;;;;;;13.31;80.06;101659.19;7384619;19;20038;-65
2022/05/02 01:03:11;;;;;;;22.05;11.63;;;;;;;13.32;79.73;101650.25;7386559;19;20018;-65
2022/05/02 01:08:11;;;;;;;15.65;8.95;;;;;;;13.31;78.58;101654.69;7384282;19;20010;-64
2022/05/02 01:10:40;;;;;;;15.30;8.75;;;;;;;13.28;78.38;101658.50;7388846;19;20033;-63
2022/05/02 01:13:07;;;;;;;16.75;9.02;;;;;;;13.27;76.95;101666.56;7383939;19;20182;-64
2022/05/02 01:15:34;;;;;;;10.75;5.70;;;;;;;13.26;76.21;101660.44;7389378;19;20491;-64
2022/05/02 01:18:01;;;;;;;11.63;6.47;;;;;;;13.24;75.21;101657.13;7388101;19;20014;-64
2022/05/02 01:20:28;;;;;;;11.95;5.72;;;;;;;13.19;75.86;101659.38;7385535;19;20015;-64
2022/05/02 01:22:56;;;;;;;12.07;4.80;;;;;;;13.11;74.21;101656.63;7383988;19;20002;-63
2022/05/02 01:25:23;;;;;;;14.85;8.38;;;;;;;13.12;73.90;101658.31;7387016;19;20026;-64
2022/05/02 01:27:50;;;;;;;10.32;5.78;;;;;;;13.14;75.20;101660.81;7388133;19;20078;-66
2022/05/02 01:30:17;;;;;;;8.10;5.10;;;;;;;13.14;74.05;101663.47;7383900;19;20041;-65
2022/05/02 01:32:45;;;;;;;9.35;4.93;;;;;;;13.18;74.25;101659.53;7385772;19;20035;-63
2022/05/02 01:35:12;;;;;;;9.90;5.60;;;;;;;13.18;75.00;101655.06;7383385;19;20035;-63
2022/05/02 01:37:39;;;;;;;11.30;5.22;;;;;;;13.17;74.44;101653.41;7391221;19;20010;-64
2022/05/02 01:40:07;;;;;;;9.27;5.55;;;;;;;13.19;74.34;101664.69;7383828;19;20394;-63
2022/05/02 01:42:34;;;;;;;8.40;4.40;;;;;;;13.19;73.98;101648.00;7385466;19;20074;-64
2022/05/02 01:45:02;;;;;;;8.60;5.22;;;;;;;13.18;73.40;101654.25;7383317;19;20356;-64
2022/05/02 01:47:29;;;;;;;8.00;4.78;;;;;;;13.15;73.61;101652.75;7386887;19;20131;-63
2022/05/02 01:49:56;;;;;;;8.07;4.47;;;;;;;13.14;74.01;101650.25;7385666;19;20015;-63
2022/05/02 01:52:24;;;;;;;10.82;5.10;;;;;;;13.16;74.41;101657.03;7384985;19;20034;-64
2022/05/02 01:54:51;;;;;;;10.10;6.32;;;;;;;13.16;75.04;101654.38;7385918;19;20043;-66
2022/05/02 01:57:18;;;;;;;12.75;6.45;;;;;;;13.17;75.31;101656.06;7386712;19;20047;-63
2022/05/02 01:59:45;;;;;;;11.85;6.18;;;;;;;13.16;74.98;101659.66;7384439;19;20010;-65
2022/05/02 02:02:12;;;;;;;12.52;6.00;;;;;;;13.13;74.44;101654.69;7385536;19;20130;-63
2022/05/02 02:07:10;;;;;;;14.23;6.35;;;;;;;13.13;74.33;101659.97;7383213;19;20018;-64
2022/05/02 02:09:37;;;;;;;12.55;6.65;;;;;;;13.16;74.16;101653.56;7384453;19;20077;-63
2022/05/02 02:12:05;;;;;;;10.32;5.78;;;;;;;13.14;74.34;101652.88;7383326;19;20010;-63
2022/05/02 02:14:32;;;;;;;13.27;6.38;;;;;;;13.13;74.61;101657.34;7385322;19;20035;-65
2022/05/02 02:16:59;;;;;;;12.60;6.78;;;;;;;13.13;74.96;101656.50;7382227;19;20006;-64
2022/05/02 02:19:26;;;;;;;13.23;7.20;;;;;;;13.11;75.53;101651.34;7383165;19;20372;-64
2022/05/02 02:22:16;;;;;;;13.07;6.38;;;;;;;13.14;75.35;101655.53;7386262;19;20024;-63
2022/05/02 02:24:45;;;;;;;12.75;6.22;;;;;;;13.14;75.03;101653.72;7384363;19;20018;-64
2022/05/02 02:27:13;;;;;;;13.80;5.75;;;;;;;13.14;74.88;101647.59;7383796;19;20582;-62
2022/05/02 02:29:41;;;;;;;11.93;6.53;;;;;;;13.15;75.07;101651.91;7384059;19;20010;-65
2022/05/02 02:32:08;;;;;;;10.90;6.15;;;;;;;13.11;76.27;101645.22;7386948;19;20010;-64
2022/05/02 02:34:35;;;;;;;16.88;8.63;;;;;;;13.09;76.97;101644.53;7382771;19;20028;-64
2022/05/02 02:37:03;;;;;;;13.50;6.57;;;;;;;13.10;75.84;101647.03;7385189;19;20019;-64
2022/05/02 02:39:30;;;;;;;13.13;6.63;;;;;;;13.10;75.92;101644.41;7381792;19;20014;-65
2022/05/02 02:41:58;;;;;;;11.20;6.22;;;;;;;13.11;75.38;101642.56;7383814;19;20437;-64
2022/05/02 02:44:25;;;;;;;11.88;6.38;;;;;;;13.13;75.35;101641.47;7383741;19;20138;-64
2022/05/02 02:46:53;;;;;;;17.33;9.23;;;;;;;13.14;76.05;101644.97;7383703;19;20034;-64
2022/05/02 02:49:20;;;;;;;15.68;8.48;;;;;;;13.13;77.29;101636.19;7381334;19;20090;-63
2022/05/02 02:51:47;;;;;;;16.88;8.32;;;;;;;13.12;77.70;101639.81;7383152;19;20484;-63
2022/05/02 02:54:14;;;;;;;16.55;8.07;;;;;;;13.10;76.98;101639.13;7380653;19;20014;-64
2022/05/02 02:56:42;;;;;;;16.25;8.02;;;;;;;13.12;77.05;101636.34;7384088;19;20023;-65
2022/05/02 02:59:09;;;;;;;12.80;6.72;;;;;;;13.08;77.09;101630.50;7382381;19;20023;-64
2022/05/02 03:01:36;;;;;;;13.73;7.10;;;;;;;13.03;77.07;101629.28;7381730;19;20452;-63
2022/05/02 03:06:01;;;;;;;18.58;8.77;;;;;;;13.01;77.72;101632.06;7385786;19;20021;-65
2022/05/02 03:06:52;;;;;;;20.15;8.75;;;;;;;12.96;78.11;101629.03;7381403;19;20018;-65
2022/05/02 03:09:19;;;;;;;15.85;7.95;;;;;;;12.94;78.64;101630.19;7383383;19;20131;-64
2022/05/02 03:11:47;;;;;;;14.18;8.10;;;;;;;12.97;78.40;101628.06;7382273;19;20094;-64
2022/05/02 03:14:14;;;;;;;16.35;8.13;;;;;;;13.01;78.21;101621.50;7383670;19;20598;-65
2022/05/02 03:16:41;;;;;;;24.23;13.05;;;;;;;13.07;79.04;101628.00;7381577;19;20003;-64
2022/05/02 03:19:08;;;;;;;19.10;9.30;;;;;;;13.10;79.10;101620.63;7383502;19;20039;-64
2022/05/02 03:21:35;;;;;;;14.88;7.78;;;;;;;13.14;78.01;101629.09;7384357;19;20360;-64
2022/05/02 03:24:03;;;;;;;15.57;8.35;;;;;;;13.16;77.67;101629.78;7382073;19;20010;-64
2022/05/02 03:26:30;;;;;;;16.70;7.97;;;;;;;13.09;78.14;101626.88;7382826;19;20287;-65
2022/05/02 03:28:57;;;;;;;17.13;7.95;;;;;;;13.04;78.21;101623.03;7384731;19;20397;-66
2022/05/02 03:31:25;;;;;;;18.40;10.27;;;;;;;13.06;80.37;101629.81;7381681;19;20011;-64
2022/05/02 03:33:52;;;;;;;19.58;9.07;;;;;;;13.07;79.96;101625.34;7381372;19;20372;-65
2022/05/02 03:36:19;;;;;;;16.52;8.45;;;;;;;13.08;79.61;101624.38;7391236;19;20011;-66
2022/05/02 03:38:46;;;;;;;16.15;8.07;;;;;;;13.08;78.01;101621.75;7388017;19;20074;-65
2022/05/02 03:41:13;;;;;;;15.20;7.93;;;;;;;13.05;78.77;101628.16;7393074;19;20041;-64
2022/05/02 03:43:42;;;;;;;23.80;12.07;;;;;;;13.02;79.13;101628.44;7385592;19;20019;-63
2022/05/02 03:46:09;;;;;;;18.23;8.80;;;;;;;13.04;80.60;101628.31;7392003;19;20483;-64
2022/05/02 03:48:37;;;;;;;15.95;8.65;;;;;;;13.03;78.43;101630.13;7390879;19;20022;-63
2022/05/02 03:51:04;;;;;;;19.73;9.93;;;;;;;13.01;78.42;101629.41;7390019;19;20015;-65
2022/05/02 03:53:31;;;;;;;15.40;8.40;;;;;;;12.98;79.24;101624.44;7389600;19;20021;-64
2022/05/02 03:55:58;;;;;;;18.83;9.95;;;;;;;12.96;79.19;101622.91;7386984;19;20074;-65
2022/05/02 03:58:25;;;;;;;22.60;10.40;;;;;;;12.93;79.62;101626.69;7387432;19;20011;-65
2022/05/02 04:00:52;;;;;;;18.05;9.88;;;;;;;12.90;79.91;101626.97;7387479;19;20010;-64
2022/05/02 04:03:19;;;;;;;18.27;9.52;;;;;;;12.92;79.69;101621.56;7392026;19;20010;-63
2022/05/02 04:05:47;;;;;;;16.27;9.15;;;;;;;12.90;79.39;101623.53;7391826;19;20003;-66
2022/05/02 04:08:14;;;;;;;17.75;8.82;;;;;;;12.92;79.66;101629.47;7389199;19;20022;-64
2022/05/02 04:10:41;;;;;;;20.15;10.85;;;;;;;12.85;80.04;101623.94;7391136;19;20010;-64
2022/05/02 04:13:09;;;;;;;24.65;12.27;;;;;;;12.89;80.63;101627.97;7388748;19;20026;-64
2022/05/02 04:15:37;;;;;;;22.85;11.30;;;;;;;12.92;82.04;101627.66;7387823;19;20003;-63
2022/05/02 04:18:04;;;;;;;21.48;10.48;;;;;;;12.98;80.28;101615.69;7390327;19;20014;-64
2022/05/02 04:20:32;;;;;;;25.80;12.40;;;;;;;12.99;79.89;101623.47;7386771;19;20047;-65
2022/05/02 04:22:59;;;;;;;26.40;12.07;;;;;;;13.00;79.76;101617.22;7386652;19;20666;-63
2022/05/02 04:25:26;;;;;;;22.67;11.73;;;;;;;12.99;79.74;101620.84;7389565;19;20018;-63
2022/05/02 04:27:53;;;;;;;22.02;11.68;;;;;;;12.98;80.29;101619.16;7390475;19;20336;-65
2022/05/02 04:30:21;;;;;;;21.50;11.70;;;;;;;12.96;79.75;101622.91;7384130;19;20496;-64
2022/05/02 04:32:48;;;;;;;21.88;12.00;;;;;;;12.97;80.20;101622.78;7387001;19;20022;-65
2022/05/02 04:35:15;;;;;;;25.38;12.70;;;;;;;12.95;80.04;101618.63;7389384;19;20414;-63
2022/05/02 04:37:43;;;;;;;25.40;12.52;;;;;;;12.96;80.41;101617.63;7385956;19;20014;-66
2022/05/02 04:40:10;;;;;;;22.35;11.63;;;;;;;12.95;80.33;101622.13;7388820;19;20400;-64
2022/05/02 04:42:38;;;;;;;23.67;11.27;;;;;;;12.97;81.41;101616.66;7387267;19;20031;-65
2022/05/02 04:45:06;;;;;;;24.58;11.38;;;;;;;13.00;81.06;101616.38;7387366;19;20018;-65
2022/05/02 04:47:33;;;;;;;22.17;11.45;;;;;;;13.04;80.46;101617.75;7384804;19;20445;-65
2022/05/02 04:50:03;;;;;;;23.70;11.23;;;;;;;13.04;80.06;101618.56;7385149;19;20010;-65
2022/05/02 04:52:30;;;;;;;22.00;11.30;;;;;;;13.00;80.51;101622.50;7389432;19;20119;-65
2022/05/02 04:54:57;;;;;;;26.30;11.55;;;;;;;12.99;80.65;101618.19;7387552;19;20462;-64
2022/05/02 04:57:25;;;;;;;26.67;11.93;;;;;;;12.96;80.11;101625.56;7386338;19;20037;-64
2022/05/02 04:59:52;;;;;;;29.05;13.95;;;;;;;12.93;80.79;101624.06;7384723;19;20011;-63
2022/05/02 05:02:19;;;;;;;34.58;16.10;;;;;;;12.92;81.13;101625.03;7387905;19;20119;-63
2022/05/02 05:04:46;;;;;;;30.15;15.55;;;;;;;12.89;81.19;101625.34;7387399;19;20056;-65
2022/05/02 05:07:14;;;;;;;32.90;16.02;;;;;;;12.87;80.95;101627.28;7389048;19;20364;-63
2022/05/02 05:09:42;;;;;;;34.85;16.02;;;;;;;12.87;80.95;101622.00;7388520;19;20400;-64
2022/05/02 05:12:12;;;;;;;35.28;17.20;;;;;;;12.91;82.41;101618.09;7389289;19;20010;-65
2022/05/02 05:17:29;;;;;;;38.60;17.17;;;;;;;12.99;81.10;101628.75;7386977;19;20472;-64
2022/05/02 05:20:03;;;;;;;31.73;15.25;;;;;;;13.03;81.06;101626.63;7383941;19;20014;-64
2022/05/02 05:22:35;;;;;;;33.10;16.55;;;;;;;13.05;80.65;101629.97;7387165;19;20608;-65
2022/05/02 05:25:08;;;;;;;29.90;16.40;;;;;;;13.08;80.63;101622.56;7390488;19;20039;-63
2022/05/02 05:27:36;;;;;;;30.95;16.30;;;;;;;13.13;80.91;101627.44;7386104;19;20015;-64
2022/05/02 05:30:06;;;;;;;30.42;15.70;;;;;;;13.16;81.20;101629.78;7384843;19;20149;-63
2022/05/02 05:32:40;;;;;;;32.92;15.90;;;;;;;13.14;80.76;101632.59;7384480;19;20386;-64
2022/05/02 05:35:09;;;;;;;33.25;15.88;;;;;;;13.11;80.77;101624.94;7384429;19;20064;-65
2022/05/02 05:37:41;;;;;;;30.60;15.40;;;;;;;13.12;80.48;101629.25;7387884;19;20014;-64
2022/05/02 05:40:48;;;;;;;34.25;16.27;;;;;;;13.20;80.08;101625.88;7384947;19;20042;-63
2022/05/02 05:43:22;;;;;;;32.08;15.80;;;;;;;13.22;79.49;101627.38;7382503;19;20015;-66
2022/05/02 05:45:51;;;;;;;32.03;16.27;;;;;;;13.21;79.23;101632.78;7383698;19;20011;-64
2022/05/02 05:48:31;;;;;;;35.90;15.65;;;;;;;13.20;79.64;101633.81;7385067;19;20015;-66
2022/05/02 05:51:03;;;;;;;32.65;15.48;;;;;;;13.21;79.60;101633.63;7382959;19;20018;-65
2022/05/02 05:53:35;;;;;;;29.58;14.85;;;;;;;13.22;79.32;101635.28;7382533;19;20037;-64
2022/05/02 05:56:15;;;;;;;33.30;15.82;;;;;;;13.23;79.09;101641.41;7388887;19;20031;-64
2022/05/02 05:58:50;;;;;;;32.08;16.23;;;;;;;13.20;79.10;101639.09;7382752;19;20344;-65
2022/05/02 06:01:27;;;;;;;30.75;16.00;;;;;;;13.20;79.34;101639.91;7383476;19;20522;-65
2022/05/02 06:03:58;;;;;;;31.23;15.52;;;;;;;13.17;79.38;101642.00;7381460;19;20034;-64
2022/05/02 06:06:29;;;;;;;34.40;15.35;;;;;;;13.16;79.81;101637.69;7387986;19;20014;-64
2022/05/02 06:08:58;;;;;;;31.42;15.45;;;;;;;13.15;79.67;101644.81;7383472;19;20398;-65
2022/05/02 06:11:27;;;;;;;33.33;16.27;;;;;;;13.11;79.61;101637.28;7386430;19;20055;-64
2022/05/02 06:13:58;;;;;;;31.15;15.55;;;;;;;13.08;79.22;101645.50;7383038;19;20040;-63
2022/05/02 06:18:59;;;;;;;33.50;16.83;;;;;;;13.06;79.77;101647.47;7384309;19;20011;-64
2022/05/02 06:21:27;;;;;;;39.60;20.60;;;;;;;13.08;80.15;101637.59;7384808;19;20034;-64
2022/05/02 06:23:57;;;;;;;34.88;17.58;;;;;;;13.14;81.55;101648.44;7383559;19;20043;-64
2022/05/02 06:26:25;;;;;;;32.03;16.60;;;;;;;13.20;80.19;101650.50;7383514;19;20042;-65
2022/05/02 06:28:52;;;;;;;33.60;16.00;;;;;;;13.23;79.61;101651.97;7381872;19;20044;-66
2022/05/02 06:31:24;;;;;;;33.70;15.25;;;;;;;13.21;79.54;101652.13;7385250;19;20686;-63
2022/05/02 06:33:52;;;;;;;30.08;15.32;;;;;;;13.19;79.28;101654.09;7381593;19;20726;-64
2022/05/02 06:36:25;;;;;;;33.15;15.77;;;;;;;13.18;79.21;101660.38;7383046;19;20027;-64
2022/05/02 06:38:57;;;;;;;32.50;17.00;;;;;;;13.20;78.96;101653.13;7384344;19;20015;-63
2022/05/02 06:41:36;;;;;;;31.13;15.07;;;;;;;13.21;79.15;101657.41;7383412;19;20529;-64
2022/05/02 06:44:09;;;;;;;31.48;16.25;;;;;;;13.20;79.10;101660.22;7383617;19;20040;-64
2022/05/02 06:46:41;;;;;;;31.92;16.25;;;;;;;13.16;79.34;101664.13;7383870;19;20041;-65
2022/05/02 06:49:12;;;;;;;36.63;16.73;;;;;;;13.16;79.18;101659.66;7381942;19;20021;-64
2022/05/02 06:51:42;;;;;;;35.88;16.48;;;;;;;13.17;79.42;101663.16;7382541;19;20103;-64
2022/05/02 06:54:20;;;;;;;34.42;15.82;;;;;;;13.18;79.11;101662.16;7383356;19;20126;-64
2022/05/02 06:56:56;;;;;;;34.60;17.25;;;;;;;13.22;79.55;101667.00;7382885;19;20014;-65
2022/05/02 06:59:31;;;;;;;31.13;16.00;;;;;;;13.22;79.21;101661.72;7383957;19;20022;-64
2022/05/02 07:02:08;;;;;;;39.00;15.50;;;;;;;13.22;78.33;101660.88;7383385;19;20014;-63
2022/05/02 07:04:39;;;;;;;31.17;15.57;;;;;;;13.20;78.58;101670.78;7384905;19;20337;-63
2022/05/02 07:07:11;;;;;;;34.20;15.73;;;;;;;13.17;78.58;101668.44;7382068;19;20037;-64
2022/05/02 07:09:41;;;;;;;33.47;16.10;;;;;;;13.16;78.34;101672.88;7384121;19;20022;-65
2022/05/02 07:12:11;;;;;;;32.40;15.65;;;;;;;13.12;78.09;101671.53;7387517;19;20082;-63
2022/05/02 07:15:04;;;;;;;32.47;15.68;;;;;;;13.13;78.76;101670.56;7391964;19;20042;-64
2022/05/02 07:17:38;;;;;;;35.88;17.42;;;;;;;13.11;78.48;101669.00;7388361;19;20031;-66
2022/05/02 07:20:07;;;;;;;36.55;17.27;;;;;;;13.12;78.64;101662.75;7389605;19;20340;-63
2022/05/02 07:22:39;;;;;;;35.10;17.38;;;;;;;13.14;79.00;101672.22;7389288;19;20374;-64
2022/05/02 07:25:09;;;;;;;32.77;16.73;;;;;;;13.18;78.94;101668.28;7388732;19;20018;-63
2022/05/02 07:27:42;;;;;;;30.35;15.50;;;;;;;13.19;78.42;101667.31;7387999;19;20003;-63
2022/05/02 07:30:10;;;;;;;35.53;16.02;;;;;;;13.23;78.37;101670.50;7387947;19;20644;-64
2022/05/02 07:32:37;;;;;;;34.13;15.95;;;;;;;13.28;78.54;101665.59;7387149;19;20607;-64
2022/05/02 07:35:05;;;;;;;33.47;16.35;;;;;;;13.34;78.06;101677.38;7391156;19;20465;-65
2022/05/02 07:37:35;;;;;;;32.85;15.90;;;;;;;13.36;77.92;101673.59;7392734;19;20019;-64
2022/05/02 07:40:05;;;;;;;29.40;15.15;;;;;;;13.39;78.24;101670.66;7390826;19;20003;-64
2022/05/02 07:42:37;;;;;;;33.95;16.23;;;;;;;13.45;77.74;101675.34;7390507;19;20098;-63
2022/05/02 07:45:07;;;;;;;34.92;16.98;;;;;;;13.48;77.94;101675.03;7387724;19;20023;-62
2022/05/02 07:47:36;;;;;;;36.78;18.38;;;;;;;13.56;77.99;101669.00;7389112;19;20243;-65
2022/05/02 07:50:05;;;;;;;35.58;16.25;;;;;;;13.61;77.37;101675.47;7387962;19;20074;-66
2022/05/02 07:52:36;;;;;;;33.45;15.35;;;;;;;13.63;76.82;101680.63;7389440;19;20038;-65
2022/05/02 07:55:04;;;;;;;34.10;15.77;;;;;;;13.67;76.81;101674.03;7360140;19;20082;-64
2022/05/02 07:57:33;;;;;;;33.22;17.05;;;;;;;13.70;76.44;101673.75;7385889;19;20086;-64
2022/05/02 08:00:00;;;;;;;30.55;15.80;;;;;;;13.77;75.46;101669.50;7392063;19;20038;-63
2022/05/02 08:02:28;;;;;;;28.65;15.18;;;;;;;13.76;75.17;101675.81;7388941;19;20023;-65
2022/05/02 08:04:56;;;;;;;32.40;16.30;;;;;;;13.78;75.72;101675.63;7389737;19;20030;-64
2022/05/02 08:07:30;;;;;;;35.05;15.45;;;;;;;13.81;75.49;101683.28;7391315;19;20503;-63
2022/05/02 08:10:03;;;;;;;34.20;16.25;;;;;;;13.83;75.60;101681.28;7387319;19;20018;-65
2022/05/02 08:12:39;;;;;;;31.45;15.18;;;;;;;13.87;75.05;101685.28;7392336;19;20550;-65
2022/05/02 08:15:13;;;;;;;29.02;14.85;;;;;;;13.86;74.64;101673.91;7388473;19;20333;-65
2022/05/02 08:17:46;;;;;;;30.52;15.75;;;;;;;13.85;74.87;101693.41;7389613;19;20425;-63
2022/05/02 08:20:17;;;;;;;30.02;15.60;;;;;;;13.83;74.81;101687.41;7389948;19;20010;-65
2022/05/02 08:28:33;;;;;;;31.77;15.35;;;;;;;13.88;75.15;101687.78;7386204;19;20052;-64
2022/05/02 08:31:12;;;;;;;32.40;16.02;;;;;;;13.95;75.42;101688.84;7386209;19;20044;-64
2022/05/02 08:33:54;;;;;;;28.27;14.90;;;;;;;14.02;74.98;101689.03;7388800;19;20018;-65
2022/05/02 08:36:31;;;;;;;28.98;13.88;;;;;;;14.08;74.14;101691.91;7388797;19;20011;-62
2022/05/02 08:39:04;;;;;;;23.40;13.25;;;;;;;14.14;73.22;101693.13;7388844;19;20011;-65
2022/05/02 08:41:34;;;;;;;27.77;14.38;;;;;;;14.15;72.23;101700.09;7389038;19;20599;-64
2022/05/02 08:44:08;;;;;;;29.20;15.13;;;;;;;14.14;72.64;101691.31;7387031;19;20445;-63
2022/05/02 08:46:41;;;;;;;29.90;14.35;;;;;;;14.25;71.51;101692.88;7388187;19;20011;-64
2022/05/02 08:51:59;;;;;;;23.05;12.02;;;;;;;14.30;71.03;101684.47;7388318;19;20080;-65
2022/05/02 08:54:29;;;;;;;22.55;11.80;;;;;;;14.34;71.18;101684.00;7390606;19;20168;-63
2022/05/02 08:57:00;;;;;;;23.23;11.07;;;;;;;14.40;71.48;101680.75;7383423;19;20006;-63
2022/05/02 08:59:42;;;;;;;21.23;11.68;;;;;;;14.53;72.26;101682.97;7377682;19;20016;-64
2022/05/02 09:02:27;;;;;;;20.33;10.32;;;;;;;14.62;68.01;101678.56;7374241;19;20519;-63
2022/05/02 09:05:00;;;;;;;19.00;10.15;;;;;;;14.70;68.88;101682.06;7377955;19;20031;-64
2022/05/02 09:07:33;;;;;;;17.63;8.95;;;;;;;14.81;68.31;101687.09;7364754;19;20045;-63
2022/05/02 09:10:04;;;;;;;16.05;8.95;;;;;;;14.96;67.36;101685.50;7364131;19;20078;-63
2022/05/02 09:12:32;;;;;;;14.73;7.68;;;;;;;15.06;66.73;101679.22;7381329;19;20015;-64
2022/05/02 09:15:10;;;;;;;17.27;7.15;;;;;;;15.17;65.92;101689.53;7390013;19;20027;-65
2022/05/02 09:17:51;;;;;;;13.70;7.57;;;;;;;15.28;65.29;101691.91;7381736;19;20119;-66
2022/05/02 09:20:22;;;;;;;15.50;7.57;;;;;;;15.35;63.93;101680.47;7372339;19;20026;-64
2022/05/02 09:22:56;;;;;;;15.73;7.38;;;;;;;15.31;63.37;101680.97;7375689;19;20096;-65
2022/05/02 09:25:27;;;;;;;13.75;7.50;;;;;;;15.26;63.70;101685.91;7371634;19;20465;-64
2022/05/02 09:28:02;;;;;;;15.10;7.60;;;;;;;15.24;65.35;101685.25;7354220;19;20014;-64
2022/05/02 09:30:36;;;;;;;14.60;8.10;;;;;;;15.28;65.11;101686.59;7358732;19;20007;-64
2022/05/02 09:33:07;;;;;;;14.73;7.13;;;;;;;15.29;65.09;101682.94;7379997;19;20040;-64
2022/05/02 09:35:46;;;;;;;14.57;8.38;;;;;;;15.33;64.87;101687.78;7389408;19;20052;-64
2022/05/02 09:38:20;;;;;;;14.88;6.72;;;;;;;15.36;64.72;101678.66;7389617;19;20036;-65
2022/05/02 09:40:48;;;;;;;11.85;6.68;;;;;;;15.39;64.75;101675.66;7387852;19;20007;-64
2022/05/02 09:43:24;;;;;;;11.98;6.50;;;;;;;15.41;63.54;101673.69;7384953;19;20041;-65
2022/05/02 09:51:14;;;;;;;11.48;5.85;;;;;;;15.46;62.67;101681.16;7384187;19;20031;-65
2022/05/02 09:53:48;;;;;;;11.70;6.15;;;;;;;15.45;63.18;101688.28;7386061;19;20014;-62
2022/05/02 09:58:54;;;;;;;15.27;8.32;;;;;;;15.40;63.82;101688.75;7387069;19;20041;-65
2022/05/02 10:01:26;;;;;;;13.60;6.50;;;;;;;15.38;63.46;101693.41;7388097;19;20019;-65
2022/05/02 10:04:08;;;;;;;12.52;7.22;;;;;;;15.36;63.60;101689.25;7387028;19;20010;-64
2022/05/02 10:06:39;;;;;;;13.88;6.63;;;;;;;15.34;63.39;101693.88;7386213;19;20022;-64
2022/05/02 10:09:12;;;;;;;15.45;7.78;;;;;;;15.32;63.73;101693.22;7386469;19;20634;-65
2022/05/02 10:11:47;;;;;;;12.32;6.63;;;;;;;15.30;63.19;101688.09;7384501;19;20086;-65
2022/05/02 10:14:18;;;;;;;12.43;6.47;;;;;;;15.27;63.12;101688.41;7385146;19;20027;-63
2022/05/02 10:16:52;;;;;;;13.35;6.70;;;;;;;15.29;63.12;101701.50;7383208;19;20482;-66
2022/05/02 10:19:41;;;;;;;12.27;6.72;;;;;;;15.26;63.80;101696.53;7386638;19;20324;-64
2022/05/02 10:22:14;;;;;;;13.10;6.45;;;;;;;15.22;62.74;101695.19;7382700;19;20088;-63
2022/05/02 10:25:10;;;;;;;11.88;6.25;;;;;;;15.22;62.91;101685.41;7388423;19;20015;-65
2022/05/02 10:27:43;;;;;;;13.15;6.72;;;;;;;15.26;62.13;101684.09;7383732;19;20013;-64
2022/05/02 10:30:12;;;;;;;14.35;6.30;;;;;;;15.26;62.16;101686.75;7384544;19;20023;-65
2022/05/02 10:32:44;;;;;;;13.02;5.97;;;;;;;15.27;62.53;101685.75;7381741;19;20038;-64
2022/05/02 10:35:14;;;;;;;17.95;8.07;;;;;;;15.34;62.68;101691.22;7387697;19;20058;-63
2022/05/02 10:37:49;;;;;;;15.63;8.73;;;;;;;15.35;62.83;101691.06;7384484;19;20045;-66
2022/05/02 10:40:23;;;;;;;20.98;10.30;;;;;;;15.34;63.34;101694.72;7382916;19;20016;-64
2022/05/02 10:42:54;;;;;;;19.30;9.77;;;;;;;15.32;64.32;101693.22;7381594;19;20467;-65
2022/05/02 10:45:25;;;;;;;18.95;10.15;;;;;;;15.35;64.54;101688.41;7390115;19;20631;-64
2022/05/02 10:47:55;;;;;;;19.83;9.57;;;;;;;15.37;64.93;101693.56;7390094;19;20014;-66
2022/05/02 10:50:26;;;;;;;19.92;10.77;;;;;;;15.40;64.56;101687.94;7391505;19;20476;-65
2022/05/02 10:52:56;;;;;;;17.92;9.88;;;;;;;15.43;64.26;101678.84;7392321;19;20486;-65
2022/05/02 10:55:26;;;;;;;18.75;10.65;;;;;;;15.46;63.73;101681.97;7391760;19;20034;-64
2022/05/02 10:57:59;;;;;;;18.38;9.73;;;;;;;15.51;64.67;101684.13;7392888;19;20047;-64
2022/05/02 11:00:32;;;;;;;19.25;9.70;;;;;;;15.57;63.46;101691.47;7392565;19;20095;-65
2022/05/02 11:03:03;;;;;;;18.20;8.80;;;;;;;15.60;62.95;101688.50;7392397;19;20158;-64
2022/05/02 11:05:44;;;;;;;19.25;9.95;;;;;;;15.57;62.53;101684.34;7389926;19;20102;-66
2022/05/02 11:08:22;;;;;;;20.30;10.57;;;;;;;15.51;62.80;101690.31;7394046;19;20119;-64
2022/05/02 11:10:58;;;;;;;18.38;9.80;;;;;;;15.49;63.20;101680.84;7394122;19;20453;-63
2022/05/02 11:13:33;;;;;;;17.40;9.65;;;;;;;15.48;63.35;101679.19;7391102;19;20665;-65
2022/05/02 11:16:07;;;;;;;17.33;9.77;;;;;;;15.48;63.07;101677.34;7389871;19;20014;-65
2022/05/02 11:21:19;;;;;;;18.08;9.15;;;;;;;15.46;62.79;101681.16;7389403;19;20022;-64
2022/05/02 11:23:48;;;;;;;17.73;9.60;;;;;;;15.45;62.53;101676.81;7389947;19;20157;-64
2022/05/02 11:26:17;;;;;;;15.57;8.90;;;;;;;15.45;62.29;101677.66;7388206;19;20015;-63
2022/05/02 11:28:50;;;;;;;17.05;9.20;;;;;;;15.45;62.70;101684.78;7389311;19;20035;-65
2022/05/02 11:31:24;;;;;;;17.08;9.18;;;;;;;15.48;64.21;101681.81;7389193;19;20124;-65
2022/05/02 11:34:02;;;;;;;14.93;8.48;;;;;;;15.52;63.73;101684.00;7389016;19;20033;-65
2022/05/02 11:36:42;;;;;;;17.45;7.80;;;;;;;15.55;64.95;101678.38;7390842;19;20382;-64
2022/05/02 11:39:20;;;;;;;17.48;8.20;;;;;;;15.62;65.64;101676.72;7388392;19;20022;-64
2022/05/02 11:41:50;;;;;;;16.17;7.80;;;;;;;15.65;63.49;101684.34;7391741;19;20051;-63
2022/05/02 11:44:19;;;;;;;15.68;7.57;;;;;;;15.64;61.62;101677.41;7386733;19;20042;-65
2022/05/02 11:46:51;;;;;;;13.88;7.57;;;;;;;15.63;61.62;101682.88;7386026;19;20027;-64
2022/05/02 11:49:33;;;;;;;15.07;8.07;;;;;;;15.60;62.51;101676.06;7388213;19;20037;-65
2022/05/02 11:52:02;;;;;;;13.13;7.03;;;;;;;15.60;62.22;101673.41;7385539;19;20014;-65
2022/05/02 11:54:35;;;;;;;16.95;8.15;;;;;;;15.59;62.86;101678.91;7387764;19;20048;-64
2022/05/02 11:57:09;;;;;;;14.35;7.88;;;;;;;15.57;63.31;101671.09;7390889;19;20015;-65